Time;durP1;ratioP1;P1;durP2;ratioP2;P2;SDS_P1;SDS_P2;PMS_P1;PMS_P2;Temp;Humidity;BMP_temperature;BMP_pressure;BME280_temperature;BME280_humidity;BME280_pressure;Samples;Min_cycle;Max_cycle;Signal;HPM_P1;HPM_P2
2023/09/21 00:00:25;;;;;;;10.48;2.88;;;14.60;99.90;;;;;;4195248;28;20037;-62
2023/09/21 00:02:28;;;;;;;3.40;2.00;;;14.60;99.90;;;;;;4196253;28;20477;-63
2023/09/21 00:04:32;;;;;;;6.38;2.00;;;14.60;99.90;;;;;;4195902;28;20109;-62
2023/09/21 00:06:33;;;;;;;3.53;1.75;;;14.50;99.90;;;;;;4195227;28;20558;-62
2023/09/21 00:08:34;;;;;;;3.33;1.90;;;14.50;99.90;;;;;;4195722;28;20032;-62
2023/09/21 00:10:35;;;;;;;5.82;2.65;;;14.50;99.90;;;;;;4195551;28;20069;-63
2023/09/21 00:12:38;;;;;;;4.07;1.80;;;14.40;99.90;;;;;;4196549;28;20492;-63
2023/09/21 00:14:41;;;;;;;2.92;1.90;;;14.40;99.90;;;;;;4177558;28;20463;-63
2023/09/21 00:16:44;;;;;;;2.30;1.98;;;14.30;99.90;;;;;;4195583;28;20041;-62
2023/09/21 00:18:45;;;;;;;4.88;2.25;;;14.30;99.90;;;;;;4194538;28;20086;-63
2023/09/21 00:20:51;;;;;;;3.70;1.75;;;14.20;99.90;;;;;;4195766;28;20082;-63
2023/09/21 00:22:55;;;;;;;6.45;2.05;;;14.20;99.90;;;;;;4194478;28;20098;-63
2023/09/21 00:24:57;;;;;;;5.82;2.28;;;14.10;99.90;;;;;;4195411;28;20040;-60
2023/09/21 00:27:00;;;;;;;4.85;1.95;;;14.00;99.90;;;;;;4194178;28;20098;-60
2023/09/21 00:29:04;;;;;;;3.40;2.10;;;14.00;99.90;;;;;;4195734;28;20431;-62
2023/09/21 00:31:05;;;;;;;4.07;2.10;;;14.00;99.90;;;;;;4194356;28;20106;-62
2023/09/21 00:33:09;;;;;;;3.20;2.35;;;13.90;99.90;;;;;;4195436;28;20041;-63
2023/09/21 00:35:11;;;;;;;4.13;2.40;;;13.90;99.90;;;;;;4194306;28;20033;-61
2023/09/21 00:37:19;;;;;;;6.32;2.65;;;13.80;99.90;;;;;;4194880;28;20387;-63
2023/09/21 00:39:20;;;;;;;6.18;2.78;;;13.80;99.90;;;;;;4195274;28;20016;-63
2023/09/21 00:41:21;;;;;;;5.88;2.92;;;13.80;99.90;;;;;;4194705;28;20044;-63
2023/09/21 00:43:24;;;;;;;6.97;2.65;;;13.60;99.90;;;;;;4195796;28;20411;-61
2023/09/21 00:45:26;;;;;;;7.28;3.97;;;13.50;99.90;;;;;;4193451;28;20082;-62
2023/09/21 00:47:27;;;;;;;8.25;3.10;;;13.40;99.90;;;;;;4195180;28;20036;-63
2023/09/21 00:49:29;;;;;;;8.48;3.42;;;13.40;99.90;;;;;;4193829;28;20036;-57
2023/09/21 00:51:35;;;;;;;5.30;3.22;;;13.20;99.90;;;;;;4195869;28;20102;-60
2023/09/21 00:53:39;;;;;;;6.07;4.17;;;13.10;99.90;;;;;;4194652;28;20028;-60
2023/09/21 00:55:44;;;;;;;11.65;4.05;;;13.00;99.90;;;;;;4194263;28;20037;-60
2023/09/21 00:57:45;;;;;;;8.57;4.40;;;12.90;99.90;;;;;;4194545;28;20089;-59
2023/09/21 00:59:47;;;;;;;8.23;4.27;;;12.90;99.90;;;;;;4194885;28;20094;-63
2023/09/21 01:01:48;;;;;;;6.87;4.40;;;12.90;99.90;;;;;;4194879;28;20162;-64
2023/09/21 01:03:54;;;;;;;8.30;4.43;;;12.80;99.90;;;;;;4195066;28;20090;-63
2023/09/21 01:05:55;;;;;;;8.07;5.00;;;12.80;99.90;;;;;;4194107;28;20056;-62
2023/09/21 01:07:58;;;;;;;7.50;4.20;;;12.70;99.90;;;;;;4195958;28;20530;-63
2023/09/21 01:09:59;;;;;;;8.80;4.63;;;12.70;99.90;;;;;;4195211;28;20094;-62
2023/09/21 01:12:00;;;;;;;9.33;5.43;;;12.60;99.90;;;;;;4194704;28;20459;-63
2023/09/21 01:14:06;;;;;;;9.03;5.27;;;12.70;99.90;;;;;;4194138;28;20049;-64
2023/09/21 01:16:11;;;;;;;9.23;5.70;;;12.60;99.90;;;;;;4194401;28;20040;-63
2023/09/21 01:18:13;;;;;;;9.10;5.77;;;12.60;99.90;;;;;;4194826;28;20422;-64
2023/09/21 01:20:32;;;;;;;8.87;5.63;;;12.60;99.90;;;;;;4194261;28;20126;-62
2023/09/21 01:22:33;;;;;;;9.53;5.13;;;12.60;99.90;;;;;;4194141;28;20488;-64
2023/09/21 01:24:35;;;;;;;9.80;5.37;;;12.60;99.90;;;;;;4176815;28;20045;-64
2023/09/21 01:26:36;;;;;;;9.07;5.43;;;12.60;99.90;;;;;;4177042;28;20079;-62
2023/09/21 01:28:38;;;;;;;8.87;5.33;;;12.60;99.90;;;;;;4193847;28;20093;-64
2023/09/21 01:30:40;;;;;;;6.40;5.27;;;12.50;99.90;;;;;;4194471;28;20086;-63
2023/09/21 01:32:41;;;;;;;9.17;5.67;;;12.50;99.90;;;;;;4193736;28;20041;-63
2023/09/21 01:34:46;;;;;;;8.50;5.00;;;12.60;99.90;;;;;;4195602;28;20496;-64
2023/09/21 01:36:48;;;;;;;7.30;5.10;;;12.50;99.90;;;;;;4193527;28;20566;-63
2023/09/21 01:38:50;;;;;;;9.00;5.50;;;12.60;99.90;;;;;;4195696;28;20025;-63
2023/09/21 01:40:51;;;;;;;9.53;5.00;;;12.60;99.90;;;;;;4193703;28;20138;-63
2023/09/21 01:42:52;;;;;;;7.53;5.37;;;12.60;99.90;;;;;;4195408;28;20058;-63
2023/09/21 01:44:53;;;;;;;7.03;5.00;;;12.60;99.90;;;;;;4193278;28;20488;-64
2023/09/21 01:46:55;;;;;;;7.20;5.20;;;12.60;99.90;;;;;;4192456;28;20040;-64
2023/09/21 01:48:57;;;;;;;6.40;5.30;;;12.60;99.90;;;;;;4192809;28;20040;-63
2023/09/21 01:50:59;;;;;;;7.17;4.93;;;12.60;99.90;;;;;;4174389;28;20037;-59
2023/09/21 01:53:02;;;;;;;8.53;5.27;;;12.60;99.90;;;;;;4194227;28;20431;-59
2023/09/21 01:55:07;;;;;;;7.97;5.37;;;12.60;99.90;;;;;;4193433;28;20557;-57
2023/09/21 01:57:08;;;;;;;9.13;5.23;;;12.60;99.90;;;;;;4192484;28;20044;-60
2023/09/21 01:59:09;;;;;;;7.80;4.97;;;12.60;99.90;;;;;;4192935;28;20439;-60
2023/09/21 02:01:10;;;;;;;10.70;5.33;;;12.60;99.90;;;;;;4192773;28;20024;-59
2023/09/21 02:03:14;;;;;;;6.33;4.53;;;12.60;99.90;;;;;;4193688;28;20835;-60
2023/09/21 02:05:15;;;;;;;8.13;4.93;;;12.60;99.90;;;;;;4193297;28;20036;-61
2023/09/21 02:07:16;;;;;;;10.33;5.47;;;12.60;99.90;;;;;;4191089;28;20443;-59
2023/09/21 02:09:17;;;;;;;8.30;5.57;;;12.60;99.90;;;;;;4194494;28;20052;-60
2023/09/21 02:11:19;;;;;;;8.53;5.30;;;12.60;99.90;;;;;;4193056;28;20562;-60
2023/09/21 02:13:20;;;;;;;8.30;5.43;;;12.60;99.90;;;;;;4194729;28;20527;-61
2023/09/21 02:15:22;;;;;;;9.97;5.43;;;12.60;99.90;;;;;;4193580;28;20036;-61
2023/09/21 02:17:24;;;;;;;9.47;5.37;;;12.50;99.90;;;;;;4194094;28;20052;-60
2023/09/21 02:19:26;;;;;;;9.17;5.63;;;12.50;99.90;;;;;;4175266;28;20479;-60
2023/09/21 02:21:27;;;;;;;7.90;5.17;;;12.50;99.90;;;;;;4193973;28;20041;-61
2023/09/21 02:23:28;;;;;;;41.10;6.70;;;12.50;99.90;;;;;;4192009;28;20378;-58
2023/09/21 02:25:31;;;;;;;9.10;5.20;;;12.60;99.90;;;;;;4192089;28;20048;-62
2023/09/21 02:27:34;;;;;;;8.53;5.60;;;12.60;99.90;;;;;;4193851;28;20221;-60
2023/09/21 02:29:40;;;;;;;7.60;5.60;;;12.60;99.90;;;;;;4194000;28;20074;-59
2023/09/21 02:31:42;;;;;;;6.70;4.93;;;12.60;99.90;;;;;;4194013;28;20036;-60
2023/09/21 02:33:43;;;;;;;9.27;5.87;;;12.60;99.90;;;;;;4193734;28;20025;-61
2023/09/21 02:35:46;;;;;;;9.63;5.43;;;12.70;99.90;;;;;;4193299;28;20037;-61
2023/09/21 02:37:48;;;;;;;7.63;4.73;;;12.60;99.90;;;;;;4191031;28;20040;-60
2023/09/21 02:39:50;;;;;;;8.70;5.20;;;12.60;99.90;;;;;;4194821;28;20078;-59
2023/09/21 02:41:51;;;;;;;8.53;5.63;;;12.60;99.90;;;;;;4192813;28;20036;-60
2023/09/21 02:43:53;;;;;;;6.03;4.73;;;12.60;99.90;;;;;;4194084;28;20503;-61
2023/09/21 02:45:55;;;;;;;12.33;5.47;;;12.50;99.90;;;;;;4193300;28;20020;-55
2023/09/21 02:48:01;;;;;;;10.60;5.73;;;12.50;99.90;;;;;;4193854;28;20085;-60
2023/09/21 02:50:14;;;;;;;7.67;5.10;;;12.50;99.90;;;;;;4193326;28;20469;-59
2023/09/21 02:52:15;;;;;;;15.60;5.37;;;12.50;99.90;;;;;;4193378;28;20048;-59
2023/09/21 02:54:17;;;;;;;9.10;5.80;;;12.40;99.90;;;;;;4191926;28;20044;-60
2023/09/21 02:56:20;;;;;;;12.70;5.47;;;12.40;99.90;;;;;;4194414;28;20082;-59
2023/09/21 02:58:21;;;;;;;6.83;5.00;;;12.40;99.90;;;;;;4191478;28;20036;-61
2023/09/21 03:00:34;;;;;;;10.10;5.53;;;12.40;99.90;;;;;;4193168;28;20044;-60
2023/09/21 03:02:35;;;;;;;10.20;5.77;;;12.40;99.90;;;;;;4174393;28;20109;-56
2023/09/21 03:04:36;;;;;;;10.27;5.30;;;12.30;99.90;;;;;;4193477;28;20041;-60
2023/09/21 03:06:37;;;;;;;10.03;5.57;;;12.30;99.90;;;;;;4193013;28;20033;-60
2023/09/21 03:08:38;;;;;;;13.13;5.90;;;12.30;99.90;;;;;;4193778;28;20036;-61
2023/09/21 03:10:41;;;;;;;10.50;5.50;;;12.30;99.90;;;;;;4192882;28;20037;-58
2023/09/21 03:12:42;;;;;;;10.87;5.93;;;12.20;99.90;;;;;;4192208;28;20048;-60
2023/09/21 03:14:45;;;;;;;10.10;6.30;;;12.20;99.90;;;;;;4193099;28;20480;-60
2023/09/21 03:16:47;;;;;;;11.17;6.00;;;12.20;99.90;;;;;;4193284;28;20021;-60
2023/09/21 03:18:48;;;;;;;8.70;5.43;;;12.10;99.90;;;;;;4192986;28;20558;-59
2023/09/21 03:20:52;;;;;;;7.90;5.77;;;12.20;99.90;;;;;;4192355;28;20481;-60
2023/09/21 03:22:53;;;;;;;9.87;5.60;;;12.20;99.90;;;;;;4193453;28;20040;-60
2023/09/21 03:24:57;;;;;;;7.97;5.37;;;12.20;99.90;;;;;;4192061;28;20049;-61
2023/09/21 03:26:58;;;;;;;7.60;5.57;;;12.20;99.90;;;;;;4194086;28;20574;-63
2023/09/21 03:29:00;;;;;;;9.33;5.97;;;12.20;99.90;;;;;;4192098;28;20094;-62
2023/09/21 03:31:02;;;;;;;8.50;5.43;;;12.10;99.90;;;;;;4193352;28;20908;-63
2023/09/21 03:33:05;;;;;;;12.10;5.30;;;12.10;99.90;;;;;;4174654;28;20075;-63
2023/09/21 03:35:10;;;;;;;8.43;5.13;;;12.10;99.90;;;;;;4193331;28;20086;-61
2023/09/21 03:37:13;;;;;;;6.00;4.47;;;12.00;99.90;;;;;;4189981;28;20048;-62
2023/09/21 03:39:17;;;;;;;5.93;4.60;;;11.90;99.90;;;;;;4192818;28;20048;-60
2023/09/21 03:41:18;;;;;;;8.60;5.10;;;11.90;99.90;;;;;;4193091;28;20526;-61
2023/09/21 03:43:22;;;;;;;8.23;5.10;;;11.80;99.90;;;;;;4192950;28;20037;-62
2023/09/21 03:45:25;;;;;;;7.87;4.87;;;11.80;99.90;;;;;;4193370;28;20070;-61
2023/09/21 03:47:26;;;;;;;9.60;5.17;;;11.80;99.90;;;;;;4192197;28;20447;-63
2023/09/21 03:49:28;;;;;;;5.60;4.40;;;11.70;99.90;;;;;;4192466;28;20032;-62
2023/09/21 03:51:29;;;;;;;10.37;7.20;;;11.70;99.90;;;;;;4192922;28;20094;-60
2023/09/21 03:53:33;;;;;;;14.60;7.40;;;11.70;99.90;;;;;;4196241;28;20020;-62
2023/09/21 03:55:35;;;;;;;12.97;6.57;;;11.70;99.90;;;;;;4195003;28;20033;-59
2023/09/21 03:57:37;;;;;;;13.33;6.60;;;11.70;99.90;;;;;;4195890;28;20029;-61
2023/09/21 03:59:39;;;;;;;14.33;7.67;;;11.70;99.90;;;;;;4193366;28;20029;-62
2023/09/21 04:01:42;;;;;;;15.30;7.50;;;11.70;99.90;;;;;;4196417;28;20469;-61
2023/09/21 04:03:43;;;;;;;12.63;6.53;;;11.70;99.90;;;;;;4195145;28;20016;-62
2023/09/21 04:05:44;;;;;;;22.60;10.73;;;11.70;99.90;;;;;;4195125;28;20436;-61
2023/09/21 04:07:46;;;;;;;22.10;10.83;;;11.70;99.90;;;;;;4194281;28;20036;-62
2023/09/21 04:09:47;;;;;;;15.93;7.10;;;11.70;99.90;;;;;;4196491;28;20102;-61
2023/09/21 04:11:48;;;;;;;9.30;5.70;;;11.70;99.90;;;;;;4194913;28;20181;-60
2023/09/21 04:13:50;;;;;;;11.67;6.50;;;11.70;99.90;;;;;;4195116;28;20036;-62
2023/09/21 04:15:51;;;;;;;11.47;6.53;;;11.70;99.90;;;;;;4193652;28;20549;-62
2023/09/21 04:17:53;;;;;;;11.40;6.70;;;11.70;99.90;;;;;;4194179;28;20045;-63
2023/09/21 04:19:54;;;;;;;27.20;8.47;;;11.70;99.90;;;;;;4194536;28;20182;-62
2023/09/21 04:21:55;;;;;;;10.50;6.27;;;11.60;99.90;;;;;;4190116;28;21128;-63
2023/09/21 04:23:56;;;;;;;22.63;7.33;;;11.60;99.90;;;;;;4194290;28;20090;-61
2023/09/21 04:25:57;;;;;;;8.57;4.97;;;11.60;99.90;;;;;;4193443;28;20142;-62
2023/09/21 04:27:59;;;;;;;11.67;6.57;;;11.50;99.90;;;;;;4193944;28;20041;-59
2023/09/21 04:30:00;;;;;;;9.27;5.87;;;11.50;99.90;;;;;;4191788;28;20037;-60
2023/09/21 04:32:01;;;;;;;12.37;6.00;;;11.50;99.90;;;;;;4193301;28;20450;-63
2023/09/21 04:34:03;;;;;;;39.23;8.43;;;11.50;99.90;;;;;;4193770;28;20094;-63
2023/09/21 04:36:04;;;;;;;21.03;6.87;;;11.40;99.90;;;;;;4196124;28;20119;-62
2023/09/21 04:38:05;;;;;;;18.97;8.27;;;11.40;99.90;;;;;;4194966;28;20388;-53
2023/09/21 04:40:11;;;;;;;14.27;6.97;;;11.40;99.90;;;;;;4196521;28;20538;-59
2023/09/21 04:42:13;;;;;;;14.57;8.43;;;11.30;99.90;;;;;;4194264;28;20114;-58
2023/09/21 04:44:15;;;;;;;17.33;8.73;;;11.30;99.90;;;;;;4194723;28;20052;-61
2023/09/21 04:46:17;;;;;;;24.93;10.23;;;11.30;99.90;;;;;;4193528;28;20033;-60
2023/09/21 04:48:18;;;;;;;23.87;11.03;;;11.40;99.90;;;;;;4176471;28;20037;-59
2023/09/21 04:50:19;;;;;;;23.33;10.03;;;11.40;99.90;;;;;;4193677;28;20093;-56
2023/09/21 04:52:22;;;;;;;28.70;10.37;;;11.30;99.90;;;;;;4195039;28;20048;-61
2023/09/21 04:54:23;;;;;;;25.53;11.30;;;11.30;99.90;;;;;;4194938;28;20364;-60
2023/09/21 04:56:24;;;;;;;26.50;10.90;;;11.30;99.90;;;;;;4193875;28;20048;-59
2023/09/21 04:58:26;;;;;;;22.13;10.83;;;11.30;99.90;;;;;;4194364;28;20118;-59
2023/09/21 05:00:29;;;;;;;37.27;11.07;;;11.40;99.90;;;;;;4193802;28;20098;-57
2023/09/21 05:02:30;;;;;;;28.37;10.03;;;11.40;99.90;;;;;;4194844;28;20040;-59
2023/09/21 05:04:31;;;;;;;72.77;11.93;;;11.40;99.90;;;;;;4194601;28;20492;-62
2023/09/21 05:06:32;;;;;;;59.23;10.47;;;11.40;99.90;;;;;;4194616;28;20078;-61
2023/09/21 05:08:36;;;;;;;122.53;11.83;;;11.30;99.90;;;;;;4193241;28;20056;-57
2023/09/21 05:10:37;;;;;;;44.43;11.23;;;11.40;99.90;;;;;;4195198;28;20101;-58
2023/09/21 05:12:39;;;;;;;47.77;11.00;;;11.40;99.90;;;;;;4194252;28;20032;-59
2023/09/21 05:14:40;;;;;;;24.10;9.43;;;11.50;99.90;;;;;;4193083;28;20070;-58
2023/09/21 05:16:41;;;;;;;134.07;13.10;;;11.60;99.90;;;;;;4193249;28;20048;-60
2023/09/21 05:18:43;;;;;;;60.83;11.23;;;11.70;99.90;;;;;;4195075;28;20653;-59
2023/09/21 05:20:45;;;;;;;34.60;11.37;;;11.80;99.90;;;;;;4194142;28;20461;-59
2023/09/21 05:22:47;;;;;;;58.40;12.17;;;11.80;99.90;;;;;;4194833;28;20078;-59
2023/09/21 05:24:49;;;;;;;50.03;11.23;;;11.90;99.90;;;;;;4193528;28;20043;-60
2023/09/21 05:26:50;;;;;;;23.97;11.00;;;12.00;99.90;;;;;;4194009;28;20062;-59
2023/09/21 05:28:51;;;;;;;47.10;11.07;;;12.00;99.90;;;;;;4169586;28;21154;-60
2023/09/21 05:30:54;;;;;;;20.03;9.90;;;12.00;99.90;;;;;;4188777;28;20468;-59
2023/09/21 05:33:00;;;;;;;30.33;10.37;;;12.00;99.90;;;;;;4190217;28;20353;-61
2023/09/21 05:35:03;;;;;;;27.60;9.07;;;12.10;99.90;;;;;;4188284;28;20436;-59
2023/09/21 05:37:04;;;;;;;18.00;9.67;;;12.20;99.90;;;;;;4187175;28;20420;-60
2023/09/21 05:39:05;;;;;;;18.60;8.60;;;12.30;99.90;;;;;;4183153;28;20090;-60
2023/09/21 05:41:06;;;;;;;54.57;10.33;;;12.40;99.90;;;;;;4190541;28;20128;-61
2023/09/21 05:43:08;;;;;;;93.40;11.33;;;12.50;99.90;;;;;;4188276;28;20090;-60
2023/09/21 05:45:09;;;;;;;15.63;9.83;;;12.50;99.90;;;;;;4188600;28;20073;-59
2023/09/21 05:47:10;;;;;;;38.67;9.97;;;12.60;99.90;;;;;;4187677;28;20086;-61
2023/09/21 05:49:17;;;;;;;17.87;10.37;;;12.70;99.90;;;;;;4189074;28;20041;-61
2023/09/21 05:51:18;;;;;;;23.23;9.77;;;12.80;99.90;;;;;;4187477;28;20113;-61
2023/09/21 05:53:20;;;;;;;40.13;10.40;;;12.90;99.90;;;;;;4189091;28;20082;-61
2023/09/21 05:55:23;;;;;;;15.90;9.60;;;13.10;99.90;;;;;;4189128;28;20089;-62
2023/09/21 05:57:24;;;;;;;15.83;9.70;;;13.10;99.90;;;;;;4188167;28;20044;-58
2023/09/21 05:59:27;;;;;;;17.20;10.17;;;13.30;99.90;;;;;;4185777;28;20053;-61
2023/09/21 06:01:31;;;;;;;19.00;10.20;;;13.60;99.90;;;;;;4189077;28;20036;-60
2023/09/21 06:03:35;;;;;;;17.27;10.00;;;14.00;99.90;;;;;;4188483;28;20040;-61
2023/09/21 06:05:37;;;;;;;17.87;10.13;;;14.40;99.90;;;;;;4187766;28;20132;-61
2023/09/21 06:07:38;;;;;;;15.00;8.47;;;14.60;99.90;;;;;;4187685;28;20110;-62
2023/09/21 06:09:39;;;;;;;15.32;9.27;;;14.80;99.90;;;;;;4187866;28;20048;-62
2023/09/21 06:11:40;;;;;;;16.75;9.15;;;15.00;99.90;;;;;;4189448;28;20048;-58
2023/09/21 06:13:42;;;;;;;20.25;8.68;;;15.40;99.90;;;;;;4186673;28;20056;-63
2023/09/21 06:15:47;;;;;;;15.63;8.98;;;15.90;99.90;;;;;;4188799;28;20577;-60
2023/09/21 06:17:48;;;;;;;12.65;7.82;;;16.50;99.90;;;;;;4188604;28;20113;-61
2023/09/21 06:19:52;;;;;;;15.23;8.23;;;17.00;99.90;;;;;;4189278;28;20134;-62
2023/09/21 06:21:57;;;;;;;15.48;8.10;;;17.30;99.90;;;;;;4190779;28;20044;-61
2023/09/21 06:23:58;;;;;;;12.40;7.13;;;17.90;99.90;;;;;;4192038;28;20058;-61
2023/09/21 06:25:59;;;;;;;14.90;8.23;;;18.40;99.90;;;;;;4191562;28;20033;-63
2023/09/21 06:28:00;;;;;;;16.60;8.10;;;18.90;99.90;;;;;;4192101;28;20059;-64
2023/09/21 06:30:01;;;;;;;14.07;8.25;;;19.00;99.90;;;;;;4192138;28;20024;-61
2023/09/21 06:32:07;;;;;;;11.20;7.10;;;19.10;99.90;;;;;;4192623;28;20097;-62
2023/09/21 06:34:08;;;;;;;10.88;7.18;;;19.20;99.90;;;;;;4193600;28;20028;-60
2023/09/21 06:36:15;;;;;;;8.93;6.90;;;19.30;99.90;;;;;;4193689;28;20109;-61
2023/09/21 06:38:16;;;;;;;11.50;7.25;;;19.50;99.90;;;;;;4192894;28;20094;-61
2023/09/21 06:40:17;;;;;;;9.07;6.18;;;20.10;99.90;;;;;;4193464;28;20078;-63
2023/09/21 06:42:18;;;;;;;9.30;6.72;;;20.30;99.90;;;;;;4193857;28;20025;-59
2023/09/21 06:44:19;;;;;;;8.60;6.68;;;20.40;99.90;;;;;;4192215;28;20034;-62
2023/09/21 06:46:20;;;;;;;7.47;5.80;;;20.20;99.90;;;;;;4193128;28;20044;-64
2023/09/21 06:48:21;;;;;;;10.50;5.57;;;20.40;99.90;;;;;;4192377;28;20497;-66
2023/09/21 06:50:23;;;;;;;9.48;5.75;;;20.60;99.90;;;;;;4192898;28;20036;-60
2023/09/21 06:52:24;;;;;;;12.90;6.05;;;20.50;99.90;;;;;;4191193;28;20056;-62
2023/09/21 06:54:26;;;;;;;10.68;5.93;;;20.20;99.90;;;;;;4192978;28;20056;-59
2023/09/21 06:56:29;;;;;;;11.02;6.05;;;19.90;99.90;;;;;;4190690;28;20041;-60
2023/09/21 06:58:35;;;;;;;9.65;5.97;;;19.50;99.90;;;;;;4152544;28;20106;-62
2023/09/21 07:00:37;;;;;;;7.75;4.75;;;19.10;99.90;;;;;;4171802;28;20040;-62
2023/09/21 07:02:38;;;;;;;7.97;5.80;;;18.70;99.90;;;;;;4193977;28;20537;-63
2023/09/21 07:04:39;;;;;;;5.90;5.20;;;18.40;99.90;;;;;;4191557;28;20021;-58
2023/09/21 07:06:40;;;;;;;5.90;4.03;;;18.20;99.90;;;;;;4192471;28;20036;-61
2023/09/21 07:08:42;;;;;;;8.00;4.53;;;18.00;99.90;;;;;;4192754;28;20518;-60
2023/09/21 07:10:43;;;;;;;6.72;5.05;;;18.20;99.90;;;;;;4192587;28;20535;-62
2023/09/21 07:12:45;;;;;;;9.23;4.75;;;18.10;99.90;;;;;;4191959;28;20044;-62
2023/09/21 07:14:46;;;;;;;5.70;4.57;;;18.10;99.90;;;;;;4192395;28;20025;-62
2023/09/21 07:16:47;;;;;;;6.18;4.43;;;18.20;99.90;;;;;;4193699;28;20020;-62
2023/09/21 07:18:49;;;;;;;9.20;4.57;;;18.20;99.90;;;;;;4192213;28;20090;-60
2023/09/21 07:20:50;;;;;;;8.70;3.92;;;18.30;99.90;;;;;;4192762;28;20062;-61
2023/09/21 07:22:51;;;;;;;5.10;3.53;;;18.20;99.90;;;;;;4192077;28;20082;-61
2023/09/21 07:24:52;;;;;;;4.72;3.47;;;18.30;99.90;;;;;;4193397;28;20578;-61
2023/09/21 07:26:54;;;;;;;4.43;3.88;;;18.40;99.90;;;;;;4190209;28;20033;-63
2023/09/21 07:28:57;;;;;;;8.88;4.15;;;18.30;99.90;;;;;;4195074;28;20577;-64
2023/09/21 07:30:59;;;;;;;5.32;3.90;;;18.30;99.90;;;;;;4193514;28;20048;-62
2023/09/21 07:33:00;;;;;;;5.93;4.03;;;18.40;99.90;;;;;;4196900;28;20032;-62
2023/09/21 07:35:06;;;;;;;6.72;4.13;;;18.50;99.90;;;;;;4195842;28;20028;-62
2023/09/21 07:37:12;;;;;;;6.32;3.97;;;18.60;99.90;;;;;;4196522;28;20082;-61
2023/09/21 07:39:16;;;;;;;6.53;3.95;;;18.80;99.90;;;;;;4195561;28;20662;-64
2023/09/21 07:41:17;;;;;;;7.35;3.78;;;19.00;99.90;;;;;;4189230;28;20435;-61
2023/09/21 07:43:18;;;;;;;3.85;2.90;;;19.30;99.90;;;;;;4193959;28;20048;-61
2023/09/21 07:45:22;;;;;;;2.78;2.58;;;19.50;99.90;;;;;;4194906;28;20534;-64
2023/09/21 07:47:23;;;;;;;5.68;2.97;;;19.60;99.90;;;;;;4179356;28;20089;-63
2023/09/21 07:49:25;;;;;;;6.03;3.22;;;19.60;99.90;;;;;;4179148;28;20025;-62
2023/09/21 07:51:26;;;;;;;3.80;2.97;;;19.70;99.90;;;;;;4179795;28;20049;-62
2023/09/21 07:53:28;;;;;;;4.60;2.80;;;19.70;99.90;;;;;;4193645;28;20086;-62
2023/09/21 07:55:30;;;;;;;4.00;2.80;;;19.70;99.90;;;;;;4193052;28;20070;-63
2023/09/21 07:57:32;;;;;;;3.03;2.60;;;19.90;99.90;;;;;;4193318;28;20487;-61
2023/09/21 07:59:33;;;;;;;5.68;3.17;;;20.10;99.90;;;;;;4195384;28;20094;-60
2023/09/21 08:01:35;;;;;;;5.00;2.60;;;20.20;99.90;;;;;;4194196;28;20158;-63
2023/09/21 08:03:37;;;;;;;3.00;2.50;;;20.40;99.90;;;;;;4177325;28;20071;-63
2023/09/21 08:05:38;;;;;;;2.58;2.08;;;20.50;99.90;;;;;;4193560;28;20130;-60
2023/09/21 08:07:40;;;;;;;4.75;2.10;;;20.40;99.90;;;;;;4194896;28;20041;-63
2023/09/21 08:09:41;;;;;;;2.95;2.60;;;20.40;99.90;;;;;;4192252;28;20028;-62
2023/09/21 08:11:43;;;;;;;5.63;2.45;;;20.60;99.90;;;;;;4196360;28;20032;-62
2023/09/21 08:13:44;;;;;;;4.45;2.47;;;20.60;99.90;;;;;;4177608;28;20041;-62
2023/09/21 08:15:46;;;;;;;2.85;2.22;;;20.80;99.90;;;;;;4194525;28;20044;-61
2023/09/21 08:17:47;;;;;;;4.13;2.17;;;21.00;99.90;;;;;;4194269;28;20086;-61
2023/09/21 08:19:49;;;;;;;2.33;2.13;;;20.80;99.90;;;;;;4195225;28;20424;-61
2023/09/21 08:21:50;;;;;;;4.78;3.10;;;20.80;99.90;;;;;;4194146;28;20079;-62
2023/09/21 08:23:51;;;;;;;3.65;2.35;;;20.90;99.90;;;;;;4193363;28;20036;-60
2023/09/21 08:25:52;;;;;;;4.43;2.05;;;21.20;99.90;;;;;;4196119;28;20391;-62
2023/09/21 08:27:53;;;;;;;4.40;1.75;;;21.40;99.90;;;;;;4195094;28;20021;-61
2023/09/21 08:29:57;;;;;;;2.30;1.80;;;21.50;99.90;;;;;;4195841;28;20066;-59
2023/09/21 08:31:58;;;;;;;3.03;1.77;;;21.70;99.90;;;;;;4192584;28;20600;-60
2023/09/21 08:34:00;;;;;;;2.47;1.63;;;21.70;99.90;;;;;;4193312;28;20040;-60
2023/09/21 08:36:01;;;;;;;3.63;1.83;;;21.70;99.90;;;;;;4193678;28;20428;-60
2023/09/21 08:38:03;;;;;;;3.90;2.05;;;21.70;99.90;;;;;;4193979;28;20435;-58
2023/09/21 08:40:06;;;;;;;4.38;2.03;;;21.90;99.90;;;;;;4194878;28;20105;-59
2023/09/21 08:42:09;;;;;;;4.50;2.00;;;22.00;99.90;;;;;;4193335;28;20105;-61
2023/09/21 08:44:11;;;;;;;5.70;1.80;;;22.00;99.90;;;;;;4192471;28;20424;-60
2023/09/21 08:46:14;;;;;;;3.40;1.80;;;22.20;99.90;;;;;;4194266;28;20032;-63
2023/09/21 08:48:17;;;;;;;3.20;1.50;;;22.20;99.90;;;;;;4195040;28;20121;-59
2023/09/21 08:50:19;;;;;;;3.35;1.60;;;22.30;99.90;;;;;;4176350;28;20037;-61
2023/09/21 08:52:21;;;;;;;1.83;1.67;;;22.30;99.90;;;;;;4194507;28;20037;-62
2023/09/21 08:54:23;;;;;;;3.80;1.60;;;22.20;99.90;;;;;;4193316;28;20045;-58
2023/09/21 08:56:27;;;;;;;5.65;1.60;;;22.40;99.90;;;;;;4194871;28;20090;-61
2023/09/21 08:58:34;;;;;;;3.63;1.60;;;22.40;99.90;;;;;;4193523;28;20037;-59
2023/09/21 09:00:36;;;;;;;4.15;2.00;;;22.60;99.90;;;;;;4194514;28;20496;-61
2023/09/21 09:02:37;;;;;;;3.75;2.08;;;22.80;99.90;;;;;;4193890;28;20036;-61
2023/09/21 09:04:41;;;;;;;3.88;1.65;;;22.90;99.90;;;;;;4194809;28;20086;-61
2023/09/21 09:06:42;;;;;;;2.10;1.63;;;22.90;99.90;;;;;;4191625;28;20028;-61
2023/09/21 09:08:46;;;;;;;2.35;1.50;;;22.90;99.90;;;;;;4194156;28;20563;-59
2023/09/21 09:10:48;;;;;;;6.68;2.50;;;22.90;99.90;;;;;;4193488;28;20036;-59
2023/09/21 09:13:03;;;;;;;3.50;1.60;;;22.80;99.90;;;;;;4194079;28;20089;-59
2023/09/21 09:15:05;;;;;;;2.67;1.50;;;22.80;99.90;;;;;;4194225;28;20033;-60
2023/09/21 09:17:13;;;;;;;2.58;1.58;;;22.70;99.90;;;;;;4194052;28;20094;-62
2023/09/21 09:19:15;;;;;;;4.47;1.73;;;22.70;99.90;;;;;;4192534;28;20052;-59
2023/09/21 09:21:18;;;;;;;2.13;1.50;;;22.70;99.90;;;;;;4193073;28;20504;-58
2023/09/21 09:23:20;;;;;;;3.38;1.70;;;22.70;99.90;;;;;;4192429;28;20367;-60
2023/09/21 09:25:21;;;;;;;3.38;1.80;;;22.70;99.90;;;;;;4194918;28;20101;-64
2023/09/21 09:27:24;;;;;;;3.63;1.70;;;22.70;99.90;;;;;;4192990;28;20562;-64
2023/09/21 09:29:25;;;;;;;5.32;1.45;;;22.70;99.90;;;;;;4194922;28;20078;-62
2023/09/21 09:31:27;;;;;;;2.20;1.35;;;22.60;99.90;;;;;;4193125;28;20036;-60
2023/09/21 09:33:33;;;;;;;2.70;1.90;;;22.70;99.90;;;;;;4192958;28;20060;-64
2023/09/21 09:35:37;;;;;;;1.50;1.00;;;22.70;99.90;;;;;;4193959;28;20098;-60
2023/09/21 09:37:39;;;;;;;4.25;1.90;;;22.80;99.90;;;;;;4193815;28;20070;-61
2023/09/21 09:39:40;;;;;;;3.60;1.65;;;22.90;99.90;;;;;;4193672;28;20512;-60
2023/09/21 09:41:42;;;;;;;5.00;2.17;;;23.00;99.90;;;;;;4193348;28;20391;-60
2023/09/21 09:43:45;;;;;;;2.63;1.50;;;23.10;99.90;;;;;;4194175;28;20064;-60
2023/09/21 09:45:47;;;;;;;2.13;1.50;;;23.10;99.90;;;;;;4192831;28;20036;-60
2023/09/21 09:47:55;;;;;;;5.88;1.50;;;23.20;99.90;;;;;;4194746;28;20070;-62
2023/09/21 09:49:57;;;;;;;3.53;1.40;;;23.30;99.90;;;;;;4191347;28;20118;-61
2023/09/21 09:52:00;;;;;;;3.00;1.58;;;23.30;99.90;;;;;;4194688;28;20476;-62
2023/09/21 09:54:02;;;;;;;4.03;1.85;;;23.50;99.90;;;;;;4192754;28;20473;-60
2023/09/21 09:56:08;;;;;;;2.45;1.00;;;23.50;99.90;;;;;;4193422;28;20098;-61
2023/09/21 09:58:10;;;;;;;3.97;1.60;;;23.60;99.90;;;;;;4192186;28;20078;-60
2023/09/21 10:00:21;;;;;;;2.30;1.67;;;23.60;99.90;;;;;;4176575;28;20090;-60
2023/09/21 10:02:25;;;;;;;2.10;1.52;;;23.60;99.90;;;;;;4190401;28;20052;-62
2023/09/21 10:04:33;;;;;;;4.03;1.60;;;23.60;99.90;;;;;;4191603;28;20036;-60
2023/09/21 10:06:37;;;;;;;1.05;1.00;;;23.50;99.90;;;;;;4192903;28;21068;-62
2023/09/21 10:08:40;;;;;;;4.18;1.58;;;23.50;99.90;;;;;;4193276;28;20094;-63
2023/09/21 10:10:54;;;;;;;3.67;1.73;;;23.50;99.90;;;;;;4192601;28;20059;-62
2023/09/21 10:12:57;;;;;;;4.80;1.80;;;23.60;99.90;;;;;;4193757;28;20040;-58
2023/09/21 10:14:58;;;;;;;5.05;2.10;;;23.70;99.90;;;;;;4192847;28;20068;-61
2023/09/21 10:17:04;;;;;;;9.93;2.40;;;23.80;99.90;;;;;;4193063;28;20106;-61
2023/09/21 10:19:22;;;;;;;7.18;3.03;;;23.90;99.90;;;;;;4192843;28;20494;-61
2023/09/21 10:21:29;;;;;;;7.78;2.58;;;23.90;99.90;;;;;;4192914;28;20032;-63
2023/09/21 10:23:33;;;;;;;3.65;2.05;;;24.00;99.90;;;;;;4190647;28;20492;-61
2023/09/21 10:25:38;;;;;;;4.57;2.13;;;24.00;99.90;;;;;;4185413;28;20484;-60
2023/09/21 10:27:39;;;;;;;5.40;2.10;;;23.90;99.90;;;;;;4192898;28;20036;-60
2023/09/21 10:29:42;;;;;;;3.47;2.00;;;24.00;99.90;;;;;;4193705;28;20493;-60
2023/09/21 10:31:44;;;;;;;4.68;2.13;;;24.10;99.90;;;;;;4193992;28;20040;-61
2023/09/21 10:33:51;;;;;;;4.82;2.13;;;24.10;99.90;;;;;;4191681;28;20391;-62